Have a Safe July 4th! 

Flight Track Log - Related Links

Times and Time Zones

All times are in EDT time to prevent confusion due to time zone crossing. See the VRT51 flight status page for this flight to view local times or setup timezone preferences in your user account.

Time Position Orientation Groundspeed Altitude Reporting Facility
EDT Latitude Longitude Course Direction KTS MPH feet Rate Location/Type
Wed 06:45:55 PM 35.5322 -82.5842 323° Northwest 234 269 8,100  Level Atlanta Center
Wed 06:46:55 PM 35.5892 -82.6367 323° Northwest 250 288 10,000 950 Climbing Atlanta Center
Wed 06:47:55 PM 35.6383 -82.7331 302° West 299 344 10,000 1,250 Level Atlanta Center
Wed 06:48:55 PM 35.6811 -82.8269 299° West 315 362 12,500 2,450 Climbing Atlanta Center
Wed 06:49:55 PM 35.7300 -82.9311 300° West 341 392 14,900 2,500 Climbing Atlanta Center
Wed 06:50:55 PM 35.7808 -83.0378 300° West 357 411 17,500 2,550 Climbing Atlanta Center
Wed 06:51:55 PM 35.8028 -83.1553 283° West 356 410 20,000 2,450 Climbing Atlanta Center
Wed 06:52:55 PM 35.8203 -83.2706 281° West 356 410 22,400 1,500 Climbing Atlanta Center
Wed 06:53:55 PM 35.8375 -83.4008 279° West 362 417 23,000 650 Climbing Atlanta Center
Wed 06:54:55 PM 35.8569 -83.5442 280° West 399 459 23,700 500 Climbing Atlanta Center
Wed 06:55:55 PM 35.8639 -83.6878 273° West 418 481 24,000 150 Climbing Atlanta Center
Wed 06:56:55 PM 35.8475 -83.8286 262° West 418 481 24,000  Level Atlanta Center
Wed 06:57:55 PM 35.8308 -83.9669 262° West 423 487 24,000 -200 Level Atlanta Center
Wed 06:58:55 PM 35.8142 -84.1106 262° West 423 487 23,600 -800 Descending Atlanta Center
Wed 06:59:55 PM 35.7994 -84.2486 263° West 423 487 22,400 -800 Descending Atlanta Center
Wed 07:00:55 PM 35.7825 -84.3817 261° West 417 480 22,000 -200 Descending Atlanta Center
Wed 07:01:55 PM 35.7675 -84.5147 262° West 406 467 22,000 -300 Level Atlanta Center
Wed 07:02:55 PM 35.7503 -84.6453 261° West 401 461 21,400 -850 Descending Atlanta Center
Wed 07:03:55 PM 35.7369 -84.7653 262° West 401 461 20,300 -404 Descending Atlanta Center
Wed 07:06:23 PM 35.6967 -85.0989 262° West 386 444 20,000 -87 Descending Memphis Center
Wed 07:07:23 PM 35.6772 -85.2306 260° West 391 450 20,000  Level Memphis Center
Wed 07:08:23 PM 35.6567 -85.3417 257° West 391 450 20,000  Level Memphis Center
Wed 07:09:23 PM 35.6536 -85.4747 268° West 391 450 20,000 -550 Level Memphis Center
Wed 07:10:23 PM 35.6569 -85.6072 272° West 391 450 18,900 -1,500 Descending Memphis Center
Wed 07:11:23 PM 35.6597 -85.7375 272° West 386 444 17,000 -2,050 Descending Memphis Center
Wed 07:12:23 PM 35.6628 -85.8778 272° West 381 438 14,800 -2,100 Descending Memphis Center
Wed 07:13:23 PM 35.6628 -85.9978 270° West 374 430 12,800 -1,450 Descending Memphis Center
Wed 07:14:23 PM 35.6892 -86.0986 288° West 319 367 11,900 -1,350 Descending Memphis Center
Wed 07:15:23 PM 35.7442 -86.1803 310° West 309 356 10,100 -1,900 Descending Memphis Center
Wed 07:16:23 PM 35.7700 -86.2658 290° West 292 336 8,100 -2,000 Descending Memphis Center
Wed 07:17:23 PM 35.7956 -86.3467 291° West 263 303 6,100 -2,000 Descending Memphis Center
Wed 07:18:23 PM 35.8250 -86.4244 295° West 252 290 4,100 -1,050 Descending Memphis Center
Wed 07:19:23 PM 35.8481 -86.4925 293° West 247 284 4,000 -50 Descending Memphis Center
Wed 07:20:23 PM 35.8711 -86.5606 293° West 235 270 4,000  Level Memphis Center
Wed 07:21:23 PM 35.8939 -86.6289 292° West 230 265 4,000  Level Memphis Center
Wed 07:22:23 PM 35.9147 -86.6944 291° West 220 253 4,000 -400 Level Memphis Center
Wed 07:23:23 PM 35.9497 -86.7467 310° West 203 234 3,200 -750 Descending Memphis Center
Wed 07:24:23 PM 35.9972 -86.7319 14° North 151 174 2,500 -600 Descending Memphis Center
Wed 07:25:23 PM 36.0342 -86.7172 18° North 128 147 2,000 -550 Descending Memphis Center
Wed 07:26:23 PM 36.0672 -86.7031 19° North 123 142 1,400 -600 Descending Memphis Center
Wed 07:29:00 PM 36.1167 -86.6667 345° North  Level FlightAware Approximate

Login

Don't have an account? Register now (free) for customized features, flight alerts, and more!